Time;durP1;ratioP1;P1;durP2;ratioP2;P2;SDS_P1;SDS_P2;PMS_P1;PMS_P2;Temp;Humidity;BMP_temperature;BMP_pressure;BME280_temperature;BME280_humidity;BME280_pressure;Samples;Min_cycle;Max_cycle;Signal;HPM_P1;HPM_P2
2023/08/18 00:00:28;;;;;;;7.50;4.30;;;;;;;20.54;100.00;101262.52;106031;1259;61296;-89
2023/08/18 00:03:17;;;;;;;6.30;4.00;;;;;;;20.53;100.00;101256.77;106132;1258;75724;-88
2023/08/18 00:06:05;;;;;;;7.30;3.90;;;;;;;20.52;100.00;101258.78;105880;1259;68564;-88
2023/08/18 00:08:53;;;;;;;6.20;4.20;;;;;;;20.58;100.00;101260.66;105959;1259;73696;-88
2023/08/18 00:11:41;;;;;;;5.20;4.00;;;;;;;20.50;100.00;101257.08;105942;1262;61290;-85
2023/08/18 00:14:30;;;;;;;5.50;3.90;;;;;;;20.42;100.00;101257.69;106172;1258;61319;-85
2023/08/18 00:17:18;;;;;;;6.90;3.70;;;;;;;20.39;100.00;101259.38;106095;1257;73359;-87
2023/08/18 00:20:08;;;;;;;4.80;3.70;;;;;;;20.38;100.00;101257.09;106133;1259;69697;-86
2023/08/18 00:22:56;;;;;;;7.40;4.10;;;;;;;20.35;100.00;101255.16;106069;1257;73709;-88
2023/08/18 00:25:45;;;;;;;6.50;3.90;;;;;;;20.40;100.00;101252.75;105913;1260;61283;-86
2023/08/18 00:28:34;;;;;;;6.90;3.90;;;;;;;20.43;100.00;101255.03;106067;1258;61173;-86
2023/08/18 00:31:24;;;;;;;7.20;4.10;;;;;;;20.44;100.00;101251.98;105933;1258;75736;-88
2023/08/18 00:34:12;;;;;;;7.50;4.20;;;;;;;20.42;100.00;101254.84;105974;1257;69428;-87
2023/08/18 00:37:00;;;;;;;10.30;4.10;;;;;;;20.40;100.00;101256.07;105876;1259;72643;-86
2023/08/18 00:39:49;;;;;;;7.20;3.90;;;;;;;20.34;100.00;101258.58;106074;1258;61368;-86
2023/08/18 00:42:37;;;;;;;5.40;3.40;;;;;;;20.31;100.00;101261.77;106020;1259;61274;-88
2023/08/18 00:45:25;;;;;;;5.60;3.80;;;;;;;20.28;100.00;101255.19;105834;1258;74366;-89
2023/08/18 00:48:14;;;;;;;8.40;3.60;;;;;;;20.26;100.00;101259.06;105954;1257;69620;-86
2023/08/18 00:51:02;;;;;;;5.50;3.50;;;;;;;20.23;100.00;101256.88;106068;1259;73061;-89
2023/08/18 00:53:54;;;;;;;10.20;5.00;;;;;;;20.18;100.00;101254.91;105823;1257;61247;-89
2023/08/18 00:56:43;;;;;;;8.10;3.40;;;;;;;20.12;100.00;101253.86;106032;1262;61506;-88
2023/08/18 00:59:32;;;;;;;6.10;3.90;;;;;;;20.11;100.00;101252.46;106158;1258;75427;-89
2023/08/18 01:02:20;;;;;;;5.10;3.10;;;;;;;20.11;100.00;101253.95;105963;1257;69510;-88
2023/08/18 01:05:08;;;;;;;3.60;3.00;;;;;;;20.08;100.00;101250.80;106035;1260;73918;-86
2023/08/18 01:07:56;;;;;;;5.60;3.50;;;;;;;20.03;100.00;101252.21;105839;1262;61160;-88
2023/08/18 01:10:54;;;;;;;6.00;3.90;;;;;;;19.97;100.00;101252.90;105841;1257;61251;-85
2023/08/18 01:13:50;;;;;;;7.90;4.10;;;;;;;19.91;100.00;101253.35;106028;1262;74645;-85
2023/08/18 01:16:38;;;;;;;6.50;3.50;;;;;;;19.89;100.00;101254.58;105983;1259;69671;-84
2023/08/18 01:19:27;;;;;;;5.40;3.70;;;;;;;19.86;100.00;101250.69;105899;1260;74632;-87
2023/08/18 01:22:15;;;;;;;7.10;3.60;;;;;;;19.83;100.00;101248.16;105961;1259;61201;-89
2023/08/18 01:25:03;;;;;;;6.00;3.90;;;;;;;19.86;100.00;101246.02;105806;1259;62792;-87
2023/08/18 01:28:06;;;;;;;4.80;4.10;;;;;;;19.84;100.00;101249.30;106112;1259;75690;-89
2023/08/18 01:30:59;;;;;;;11.50;4.00;;;;;;;19.86;100.00;101248.73;105795;1259;69622;-89
2023/08/18 01:33:58;;;;;;;6.70;4.60;;;;;;;19.86;100.00;101245.52;105972;1259;73870;-87
2023/08/18 01:36:46;;;;;;;4.50;3.30;;;;;;;19.82;100.00;101246.60;106081;1259;61819;-89
2023/08/18 01:39:35;;;;;;;4.40;3.20;;;;;;;19.78;100.00;101251.12;106145;1262;61382;-90
2023/08/18 01:42:23;;;;;;;5.80;4.10;;;;;;;19.76;100.00;101253.02;105915;1257;75842;-87
2023/08/18 01:45:11;;;;;;;4.20;3.40;;;;;;;19.78;100.00;101252.14;105709;1259;69992;-87
2023/08/18 01:47:59;;;;;;;5.40;3.80;;;;;;;19.64;100.00;101248.68;105648;1259;73681;-85
2023/08/18 01:50:48;;;;;;;6.70;3.50;;;;;;;19.62;100.00;101251.49;106194;1259;63003;-85
2023/08/18 01:53:35;;;;;;;5.60;3.30;;;;;;;19.55;100.00;101253.86;106135;1259;61224;-85
2023/08/18 01:56:25;;;;;;;8.40;3.60;;;;;;;19.56;100.00;101257.45;106110;1262;75140;-88
2023/08/18 01:59:13;;;;;;;4.40;3.30;;;;;;;19.55;100.00;101255.36;105951;1257;68998;-88
2023/08/18 02:02:02;;;;;;;6.40;4.00;;;;;;;19.54;100.00;101255.00;105996;1260;73729;-85
2023/08/18 02:04:50;;;;;;;8.10;4.30;;;;;;;19.51;100.00;101255.53;105996;1257;61199;-88
2023/08/18 02:07:38;;;;;;;4.90;4.30;;;;;;;19.49;100.00;101259.74;105904;1259;61366;-88
2023/08/18 02:10:26;;;;;;;5.30;4.40;;;;;;;19.52;100.00;101262.94;105838;1262;74859;-88
2023/08/18 02:13:14;;;;;;;7.90;4.20;;;;;;;19.49;100.00;101258.54;106064;1259;68465;-84
2023/08/18 02:16:03;;;;;;;5.90;4.10;;;;;;;19.46;100.00;101260.93;105946;1263;72691;-86
2023/08/18 02:18:51;;;;;;;9.90;4.40;;;;;;;19.44;100.00;101259.77;106078;1262;61359;-87
2023/08/18 02:21:39;;;;;;;5.80;4.30;;;;;;;19.46;100.00;101260.94;105878;1257;61391;-87
2023/08/18 02:24:28;;;;;;;5.50;3.50;;;;;;;19.56;100.00;101260.27;105810;1257;75647;-85
2023/08/18 02:27:16;;;;;;;6.50;4.20;;;;;;;19.50;100.00;101266.36;106068;1261;67633;-85
2023/08/18 02:30:06;;;;;;;4.80;3.20;;;;;;;19.49;100.00;101265.56;106202;1260;73534;-86
2023/08/18 02:32:54;;;;;;;5.80;3.10;;;;;;;19.40;100.00;101264.48;105946;1260;62730;-86
2023/08/18 02:35:43;;;;;;;5.30;3.30;;;;;;;19.42;100.00;101272.42;106083;1260;61378;-85
2023/08/18 02:38:33;;;;;;;5.10;3.60;;;;;;;19.35;100.00;101271.81;106003;1258;252768;-85
2023/08/18 02:41:23;;;;;;;8.10;3.80;;;;;;;19.32;100.00;101272.45;106119;1262;68992;-89
2023/08/18 02:44:12;;;;;;;8.50;3.40;;;;;;;19.29;100.00;101269.73;106151;1262;73060;-88
2023/08/18 02:47:00;;;;;;;4.60;3.70;;;;;;;19.24;100.00;101269.48;106496;1263;61282;-88
2023/08/18 02:49:50;;;;;;;6.30;3.90;;;;;;;19.24;100.00;101273.77;106013;1260;61935;-85
2023/08/18 02:52:38;;;;;;;5.70;4.10;;;;;;;19.27;100.00;101274.36;105803;1259;74431;-88
2023/08/18 02:55:27;;;;;;;7.30;4.20;;;;;;;19.32;100.00;101276.23;105921;1259;68708;-85
2023/08/18 02:58:15;;;;;;;6.30;4.10;;;;;;;19.39;100.00;101278.64;106147;1262;73646;-85
2023/08/18 03:01:04;;;;;;;4.30;3.70;;;;;;;19.44;100.00;101283.73;105869;1257;61372;-88
2023/08/18 03:03:53;;;;;;;6.60;3.90;;;;;;;19.54;100.00;101284.55;106036;1260;61427;-85
2023/08/18 03:06:41;;;;;;;7.40;3.50;;;;;;;19.62;100.00;101287.99;106136;1261;74538;-85
2023/08/18 03:09:29;;;;;;;3.70;3.00;;;;;;;19.65;100.00;101287.36;106115;1260;69618;-85
2023/08/18 03:12:19;;;;;;;5.10;3.60;;;;;;;19.47;100.00;101292.00;105948;1259;72530;-88
2023/08/18 03:15:08;;;;;;;6.40;3.60;;;;;;;19.42;100.00;101291.98;105939;1257;62878;-84
2023/08/18 03:17:56;;;;;;;8.10;3.70;;;;;;;19.53;100.00;101288.91;105875;1260;61363;-85
2023/08/18 03:20:45;;;;;;;6.20;3.50;;;;;;;19.56;100.00;101286.77;105823;1262;73734;-85
2023/08/18 03:23:35;;;;;;;6.40;3.50;;;;;;;19.52;100.00;101288.81;105810;1258;68150;-84
2023/08/18 03:26:23;;;;;;;9.90;5.90;;;;;;;19.60;100.00;101291.94;105868;1260;73480;-89
2023/08/18 03:29:11;;;;;;;7.60;5.40;;;;;;;19.71;100.00;101293.74;105953;1262;61763;-88
2023/08/18 03:31:59;;;;;;;11.40;6.20;;;;;;;19.78;100.00;101293.65;106136;1259;61249;-88
2023/08/18 03:34:48;;;;;;;7.90;5.40;;;;;;;19.84;100.00;101296.83;105728;1259;74059;-85
2023/08/18 03:37:36;;;;;;;6.90;4.20;;;;;;;20.08;100.00;101297.89;105734;1258;69784;-85
2023/08/18 03:40:25;;;;;;;7.30;4.50;;;;;;;20.23;100.00;101296.60;105858;1260;71778;-85
2023/08/18 03:43:13;;;;;;;9.70;4.80;;;;;;;20.40;100.00;101299.20;105983;1263;62186;-85
2023/08/18 03:46:22;;;;;;;7.90;5.20;;;;;;;20.47;100.00;101302.02;106038;1260;61355;-85
2023/08/18 03:49:11;;;;;;;8.20;4.80;;;;;;;20.71;100.00;101302.48;105959;1260;73060;-85
2023/08/18 03:52:00;;;;;;;10.80;4.20;;;;;;;20.86;100.00;101303.52;106015;1262;69820;-89
2023/08/18 03:54:48;;;;;;;9.80;5.70;;;;;;;21.08;100.00;101307.14;105865;1264;72500;-89
2023/08/18 03:57:36;;;;;;;9.70;6.30;;;;;;;21.34;100.00;101310.42;105941;1262;61323;-89
2023/08/18 04:00:25;;;;;;;7.40;5.60;;;;;;;21.61;100.00;101313.89;106004;1259;61320;-85
2023/08/18 04:03:14;;;;;;;11.60;5.60;;;;;;;21.98;100.00;101314.20;106125;1257;74667;-86
2023/08/18 04:06:03;;;;;;;11.60;6.40;;;;;;;22.33;100.00;101313.80;105964;1259;68649;-88
2023/08/18 04:09:15;;;;;;;12.20;5.70;;;;;;;22.67;100.00;101313.67;105708;1265;73541;-86
2023/08/18 04:12:03;;;;;;;10.60;5.50;;;;;;;22.92;100.00;101309.89;105792;1263;61894;-86
2023/08/18 04:14:51;;;;;;;8.00;5.20;;;;;;;23.06;100.00;101311.85;106057;1260;62117;-87
2023/08/18 04:17:40;;;;;;;11.90;7.10;;;;;;;23.20;100.00;101311.14;105908;1265;75739;-92
2023/08/18 04:20:29;;;;;;;9.70;5.90;;;;;;;23.40;100.00;101310.79;105848;1263;69237;-90
2023/08/18 04:23:17;;;;;;;10.70;6.10;;;;;;;23.41;100.00;101312.05;106039;1263;72509;-90
2023/08/18 04:26:06;;;;;;;11.50;6.40;;;;;;;23.46;100.00;101312.10;105968;1259;61337;-87
2023/08/18 04:28:54;;;;;;;9.10;5.70;;;;;;;23.50;100.00;101305.64;105852;1259;61303;-86
2023/08/18 04:31:43;;;;;;;12.20;6.20;;;;;;;23.69;100.00;101302.95;105872;1259;76244;-89
2023/08/18 04:34:34;;;;;;;11.00;5.70;;;;;;;23.90;100.00;101308.20;106092;1261;69009;-88
2023/08/18 04:37:31;;;;;;;10.50;5.70;;;;;;;24.05;100.00;101308.90;106077;1260;72432;-87
2023/08/18 04:40:20;;;;;;;10.00;6.10;;;;;;;24.26;100.00;101309.31;105675;1264;61835;-87
2023/08/18 04:43:10;;;;;;;12.50;6.10;;;;;;;24.51;100.00;101314.79;105834;1265;61523;-89
2023/08/18 04:45:59;;;;;;;13.80;6.30;;;;;;;24.66;100.00;101316.22;105833;1265;75739;-89
2023/08/18 04:48:47;;;;;;;11.60;6.00;;;;;;;24.88;100.00;101319.89;105888;1259;67525;-89
2023/08/18 04:51:36;;;;;;;10.40;6.10;;;;;;;25.13;100.00;101320.17;106140;1259;65100;-87
2023/08/18 04:54:24;;;;;;;11.00;5.90;;;;;;;25.32;100.00;101319.52;106305;1259;61290;-89
2023/08/18 04:57:12;;;;;;;12.10;5.90;;;;;;;25.52;100.00;101318.20;105957;1268;61515;-90
2023/08/18 05:00:01;;;;;;;8.30;4.60;;;;;;;25.74;100.00;101317.14;105829;1263;67052;-90
2023/08/18 05:02:49;;;;;;;13.10;4.80;;;;;;;25.88;100.00;101320.55;105766;1259;61582;-90
2023/08/18 05:05:57;;;;;;;8.70;4.40;;;;;;;25.99;100.00;101319.94;105924;1260;65241;-90
2023/08/18 05:08:44;;;;;;;12.40;4.20;;;;;;;26.14;100.00;101317.19;106118;1259;61134;-92
2023/08/18 05:11:33;;;;;;;7.60;4.60;;;;;;;26.29;100.00;101322.46;106005;1259;61476;-90
2023/08/18 05:14:21;;;;;;;10.00;4.20;;;;;;;26.39;100.00;101326.04;105902;1260;66047;-87
2023/08/18 05:17:09;;;;;;;5.80;4.30;;;;;;;26.54;100.00;101325.27;105919;1259;61224;-88
2023/08/18 05:19:58;;;;;;;9.90;4.30;;;;;;;26.66;100.00;101327.05;105643;1259;65011;-88
2023/08/18 05:22:45;;;;;;;12.00;4.10;;;;;;;26.65;100.00;101328.23;106110;1259;61377;-88
2023/08/18 05:25:36;;;;;;;8.00;4.70;;;;;;;26.80;100.00;101326.15;105876;1259;61350;-88
2023/08/18 05:28:28;;;;;;;5.90;4.20;;;;;;;26.97;100.00;101324.33;105950;1263;67134;-89
2023/08/18 05:31:15;;;;;;;8.00;4.50;;;;;;;27.11;100.00;101319.48;106096;1264;61276;-89
2023/08/18 05:34:04;;;;;;;6.30;4.00;;;;;;;27.20;100.00;101315.75;105935;1259;74018;-89
2023/08/18 05:36:54;;;;;;;5.90;3.80;;;;;;;27.35;100.00;101319.86;105806;1268;61214;-88
2023/08/18 05:39:43;;;;;;;8.40;4.40;;;;;;;27.49;100.00;101315.55;105945;1259;60290;-88
2023/08/18 05:42:31;;;;;;;9.50;4.00;;;;;;;27.66;100.00;101321.13;106143;1263;67132;-89
2023/08/18 05:45:20;;;;;;;5.70;3.70;;;;;;;27.81;100.00;101322.98;106090;1259;60198;-88
2023/08/18 05:48:08;;;;;;;8.10;4.20;;;;;;;27.87;100.00;101324.23;106122;1260;65562;-89
2023/08/18 05:50:56;;;;;;;7.40;4.60;;;;;;;27.90;100.00;101319.88;105998;1259;61261;-89
2023/08/18 05:53:44;;;;;;;5.00;3.60;;;;;;;28.05;100.00;101317.68;106558;1264;61373;-88
2023/08/18 05:56:32;;;;;;;7.80;3.70;;;;;;;28.21;100.00;101316.48;106116;1263;66055;-88
2023/08/18 05:59:20;;;;;;;8.80;3.90;;;;;;;28.40;100.00;101316.83;106107;1263;61343;-89
2023/08/18 06:02:09;;;;;;;5.30;3.80;;;;;;;28.57;100.00;101318.52;105919;1259;65151;-90
2023/08/18 06:04:58;;;;;;;9.30;4.50;;;;;;;28.61;100.00;101318.17;105816;1264;61343;-90
2023/08/18 06:07:46;;;;;;;6.50;4.30;;;;;;;28.69;100.00;101316.02;105984;1264;61300;-90
2023/08/18 06:10:34;;;;;;;6.70;3.80;;;;;;;28.84;100.00;101315.23;106007;1260;64579;-90
2023/08/18 06:13:22;;;;;;;7.20;3.50;;;;;;;29.02;100.00;101311.66;105895;1264;61263;-90
2023/08/18 06:16:10;;;;;;;4.90;3.60;;;;;;;29.23;100.00;101312.08;105991;1264;64955;-91
2023/08/18 06:18:59;;;;;;;8.30;3.60;;;;;;;29.37;100.00;101312.70;106066;1263;61300;-89
2023/08/18 06:21:46;;;;;;;6.50;3.70;;;;;;;29.51;100.00;101312.41;105949;1259;60239;-90
2023/08/18 06:24:34;;;;;;;5.50;3.50;;;;;;;29.65;100.00;101308.13;105851;1263;64836;-89
2023/08/18 06:27:23;;;;;;;5.50;3.50;;;;;;;29.73;100.00;101307.48;106124;1263;61391;-90
2023/08/18 06:30:12;;;;;;;6.00;3.70;;;;;;;29.78;100.00;101305.74;105744;1261;65007;-91
2023/08/18 06:33:00;;;;;;;5.50;3.00;;;;;;;29.81;99.87;101307.05;105944;1260;61305;-90
2023/08/18 06:35:49;;;;;;;7.50;3.90;;;;;;;29.80;99.87;101310.98;105817;1260;61376;-90
2023/08/18 06:38:37;;;;;;;6.00;3.40;;;;;;;29.83;100.00;101308.29;105988;1263;66500;-91
2023/08/18 06:41:25;;;;;;;7.50;3.30;;;;;;;29.93;100.00;101306.26;106095;1261;61361;-88
2023/08/18 06:44:13;;;;;;;5.80;3.30;;;;;;;30.12;99.89;101304.13;105900;1259;63756;-91
2023/08/18 06:47:01;;;;;;;5.20;3.20;;;;;;;30.32;93.87;101304.35;105880;1263;61184;-90
2023/08/18 06:49:49;;;;;;;8.20;3.60;;;;;;;30.42;93.39;101297.95;106044;1266;61333;-91
2023/08/18 06:52:38;;;;;;;6.10;3.30;;;;;;;30.49;93.82;101304.92;106128;1264;65934;-90
2023/08/18 06:55:30;;;;;;;6.50;3.40;;;;;;;30.56;97.47;101306.00;106080;1265;69547;-89
2023/08/18 06:58:41;;;;;;;5.40;3.70;;;;;;;30.75;93.05;101304.70;105943;1263;64517;-90
2023/08/18 07:01:30;;;;;;;6.50;3.40;;;;;;;30.91;90.35;101305.76;106070;1263;61263;-92
2023/08/18 07:04:18;;;;;;;5.40;3.70;;;;;;;30.98;87.04;101309.81;105835;1261;61399;-92
2023/08/18 07:07:06;;;;;;;7.40;3.60;;;;;;;31.11;85.01;101303.95;106030;1263;66064;-91
2023/08/18 07:09:55;;;;;;;6.10;3.50;;;;;;;31.14;83.84;101299.44;105880;1260;61280;-88
2023/08/18 07:12:43;;;;;;;4.00;2.90;;;;;;;31.20;81.54;101303.33;105906;1263;65059;-91
2023/08/18 07:15:32;;;;;;;5.70;3.00;;;;;;;31.31;84.20;101307.05;105890;1261;61204;-91
2023/08/18 07:18:20;;;;;;;6.90;3.30;;;;;;;31.39;80.85;101308.36;106012;1263;61251;-91
2023/08/18 07:21:09;;;;;;;4.90;3.40;;;;;;;31.45;80.84;101307.23;105774;1267;75387;-90
2023/08/18 07:23:57;;;;;;;5.90;3.40;;;;;;;31.53;79.83;101310.32;105781;1263;61163;-91
2023/08/18 07:26:45;;;;;;;3.60;2.90;;;;;;;31.61;78.96;101308.78;105903;1265;65231;-90
2023/08/18 07:29:34;;;;;;;6.20;3.10;;;;;;;31.67;79.11;101307.02;106063;1259;61274;-91
2023/08/18 07:32:22;;;;;;;8.60;3.50;;;;;;;31.80;76.48;101305.45;106537;1263;61367;-91
2023/08/18 07:35:11;;;;;;;6.10;2.80;;;;;;;31.90;78.15;101305.63;106066;1261;66924;-91
2023/08/18 07:38:02;;;;;;;5.10;3.00;;;;;;;32.09;76.55;101304.08;106129;1260;61367;-91
2023/08/18 07:40:51;;;;;;;5.70;3.00;;;;;;;32.36;73.31;101307.23;105783;1265;64127;-91
2023/08/18 07:43:40;;;;;;;9.20;3.00;;;;;;;32.53;64.77;101310.27;105913;1263;61286;-90
2023/08/18 07:46:30;;;;;;;6.50;2.50;;;;;;;32.51;67.29;101309.05;105944;1263;60377;-93
2023/08/18 07:49:18;;;;;;;6.20;2.70;;;;;;;32.57;63.39;101308.47;105920;1267;66484;-91
2023/08/18 07:52:06;;;;;;;5.70;3.20;;;;;;;32.62;61.95;101306.85;106020;1259;61406;-92
2023/08/18 07:54:55;;;;;;;5.80;2.50;;;;;;;32.69;61.88;101310.77;106036;1261;65026;-91
2023/08/18 07:57:43;;;;;;;4.10;2.70;;;;;;;32.75;58.69;101305.16;105898;1264;61138;-90
2023/08/18 08:00:32;;;;;;;5.20;2.80;;;;;;;32.74;55.93;101312.20;105862;1261;61468;-88
2023/08/18 08:03:20;;;;;;;3.70;2.40;;;;;;;32.80;55.65;101312.73;106068;1263;67582;-89
2023/08/18 08:06:09;;;;;;;5.70;2.50;;;;;;;32.86;56.65;101309.23;105916;1264;61228;-91
2023/08/18 08:08:58;;;;;;;4.60;2.90;;;;;;;33.02;58.34;101310.28;106093;1260;64187;-90
2023/08/18 08:11:46;;;;;;;4.10;2.50;;;;;;;33.13;55.66;101310.06;106001;1261;61194;-90
2023/08/18 08:14:34;;;;;;;6.70;2.70;;;;;;;33.18;50.84;101306.00;106262;1263;61284;-89
2023/08/18 08:17:23;;;;;;;4.20;2.60;;;;;;;33.21;51.72;101307.52;106098;1264;66947;-89
2023/08/18 08:20:15;;;;;;;7.40;2.80;;;;;;;33.34;51.10;101305.63;105889;1263;61208;-90
2023/08/18 08:23:04;;;;;;;2.60;2.40;;;;;;;33.40;49.63;101298.87;105970;1259;65046;-88
2023/08/18 08:25:52;;;;;;;2.60;2.40;;;;;;;33.59;52.83;101295.83;106170;1259;61305;-88
2023/08/18 08:28:44;;;;;;;3.00;2.10;;;;;;;33.81;52.20;101296.27;106047;1263;61285;-92
2023/08/18 08:31:32;;;;;;;3.80;2.60;;;;;;;33.92;48.42;101295.36;105791;1260;67920;-89
2023/08/18 08:34:20;;;;;;;3.60;2.50;;;;;;;33.91;47.40;101297.96;106171;1260;61398;-85
2023/08/18 08:37:14;;;;;;;3.80;2.70;;;;;;;33.79;46.16;101295.31;106140;1264;64345;-90
2023/08/18 08:40:05;;;;;;;2.70;2.10;;;;;;;33.83;45.71;101295.60;105780;1267;61389;-88
2023/08/18 08:42:56;;;;;;;6.70;2.70;;;;;;;33.89;45.83;101296.84;106123;1261;61293;-87
2023/08/18 08:45:52;;;;;;;4.10;2.50;;;;;;;33.95;44.52;101295.24;106159;1263;65684;-93
2023/08/18 08:48:52;;;;;;;5.10;2.30;;;;;;;34.05;44.67;101302.69;105792;1264;61360;-88
2023/08/18 08:51:42;;;;;;;5.10;2.90;;;;;;;34.01;45.07;101303.37;105974;1263;65163;-91
2023/08/18 08:54:30;;;;;;;4.90;2.60;;;;;;;34.06;45.02;101299.44;105794;1265;61818;-90
2023/08/18 08:57:20;;;;;;;6.60;3.00;;;;;;;34.15;44.35;101302.26;106065;1260;61263;-88
2023/08/18 09:00:14;;;;;;;4.20;2.60;;;;;;;34.20;44.05;101304.66;105946;1263;65748;-88
2023/08/18 09:03:02;;;;;;;4.50;2.50;;;;;;;34.05;42.11;101300.17;105951;1263;61684;-89
2023/08/18 09:05:51;;;;;;;3.00;2.70;;;;;;;33.91;42.83;101300.64;105808;1260;65103;-89
2023/08/18 09:08:41;;;;;;;3.60;2.50;;;;;;;33.93;44.14;101303.62;105897;1261;61221;-89
2023/08/18 09:11:42;;;;;;;4.20;2.40;;;;;;;33.97;41.73;101305.20;106042;1260;61309;-88
2023/08/18 09:14:30;;;;;;;6.70;2.80;;;;;;;33.90;42.01;101299.67;105950;1261;66992;-90
2023/08/18 09:17:19;;;;;;;3.10;2.50;;;;;;;33.95;44.78;101296.45;105872;1263;61175;-88
2023/08/18 09:20:08;;;;;;;5.50;2.50;;;;;;;34.13;45.68;101297.83;105699;1261;62553;-88
2023/08/18 09:23:01;;;;;;;5.70;2.40;;;;;;;34.31;45.33;101294.96;105996;1263;61267;-87
2023/08/18 09:25:50;;;;;;;4.40;2.60;;;;;;;34.51;43.58;101299.01;105960;1264;61336;-89
2023/08/18 09:28:38;;;;;;;3.70;2.40;;;;;;;34.54;42.33;101296.28;106218;1263;64862;-90
2023/08/18 09:31:27;;;;;;;5.80;2.50;;;;;;;34.45;39.96;101300.70;106031;1259;61250;-87
2023/08/18 09:34:21;;;;;;;3.90;2.70;;;;;;;34.31;40.07;101298.45;105950;1261;64824;-89
2023/08/18 09:37:10;;;;;;;6.10;2.70;;;;;;;34.29;42.06;101299.84;105937;1265;61317;-88
2023/08/18 09:40:00;;;;;;;4.80;2.50;;;;;;;34.28;42.35;101296.44;105859;1260;61341;-88
2023/08/18 09:42:49;;;;;;;4.90;2.90;;;;;;;34.31;43.66;101293.90;106002;1259;67124;-88
2023/08/18 09:45:40;;;;;;;3.10;2.70;;;;;;;34.45;44.15;101293.81;105929;1264;61813;-88
2023/08/18 09:48:28;;;;;;;3.50;2.70;;;;;;;34.57;42.97;101294.09;106070;1264;62658;-89
2023/08/18 09:51:19;;;;;;;4.20;2.60;;;;;;;34.57;40.91;101290.98;105951;1263;61426;-89
2023/08/18 09:54:12;;;;;;;3.30;2.40;;;;;;;34.51;41.30;101286.46;106021;1260;59817;-88
2023/08/18 09:57:05;;;;;;;2.90;2.40;;;;;;;34.51;43.00;101286.77;105964;1259;67482;-89
2023/08/18 09:59:57;;;;;;;6.70;2.50;;;;;;;34.68;43.57;101283.82;105996;1260;61380;-88
2023/08/18 10:02:45;;;;;;;4.40;2.80;;;;;;;34.83;42.98;101284.42;106001;1261;65109;-88
2023/08/18 10:05:33;;;;;;;7.00;2.70;;;;;;;34.90;42.60;101281.89;105917;1260;61381;-89
2023/08/18 10:08:22;;;;;;;3.60;2.30;;;;;;;34.96;41.97;101281.73;105922;1261;61064;-88
2023/08/18 10:11:11;;;;;;;2.60;2.30;;;;;;;34.88;40.30;101287.19;106088;1257;67023;-89
2023/08/18 10:13:59;;;;;;;3.90;2.20;;;;;;;34.80;39.46;101287.72;105820;1259;61177;-88
2023/08/18 10:16:48;;;;;;;3.60;2.40;;;;;;;34.64;39.74;101280.80;105964;1259;63904;-88
2023/08/18 10:19:54;;;;;;;4.20;2.40;;;;;;;34.54;40.87;101278.95;105825;1260;61299;-88
2023/08/18 10:22:43;;;;;;;5.10;2.60;;;;;;;34.60;42.18;101277.83;105882;1264;61312;-88
2023/08/18 10:25:35;;;;;;;3.80;2.70;;;;;;;34.77;43.21;101277.53;106139;1263;65943;-86
2023/08/18 10:28:28;;;;;;;4.70;2.50;;;;;;;34.85;41.64;101275.06;105952;1263;61290;-87
2023/08/18 10:31:17;;;;;;;4.20;2.30;;;;;;;34.82;39.78;101278.36;105936;1263;63878;-86
2023/08/18 10:34:06;;;;;;;3.60;2.50;;;;;;;34.82;40.92;101276.34;105908;1261;61301;-88
2023/08/18 10:36:58;;;;;;;3.00;2.40;;;;;;;34.86;40.09;101273.77;106059;1260;61282;-89
2023/08/18 10:39:48;;;;;;;3.10;2.20;;;;;;;34.74;40.14;101272.46;106047;1263;67094;-88
2023/08/18 10:42:38;;;;;;;5.00;2.50;;;;;;;34.67;40.42;101268.67;106165;1263;61295;-85
2023/08/18 10:45:28;;;;;;;3.90;2.40;;;;;;;34.74;38.84;101267.28;105863;1260;65093;-88
2023/08/18 10:48:16;;;;;;;3.60;2.20;;;;;;;34.67;38.24;101267.45;106066;1260;61218;-85
2023/08/18 10:51:05;;;;;;;6.80;2.30;;;;;;;34.67;40.00;101265.98;106194;1258;61265;-87
2023/08/18 10:53:53;;;;;;;3.60;2.50;;;;;;;34.77;40.26;101265.79;106000;1259;66030;-88
2023/08/18 10:56:44;;;;;;;;;;;;;;;34.78;40.25;101266.23;105996;1259;61340;-87
2023/08/18 10:59:33;;;;;;;4.30;2.30;;;;;;;34.79;40.60;101265.17;106022;1259;64885;-87
2023/08/18 11:02:23;;;;;;;3.70;2.50;;;;;;;34.91;40.64;101262.27;105990;1259;61408;-85
2023/08/18 11:05:11;;;;;;;3.30;2.20;;;;;;;34.99;39.22;101262.38;106076;1260;61248;-86
2023/08/18 11:08:00;;;;;;;3.20;2.40;;;;;;;35.00;38.81;101263.48;105770;1261;66128;-88
2023/08/18 11:10:48;;;;;;;5.70;2.40;;;;;;;35.05;39.37;101262.28;105939;1264;61244;-88
2023/08/18 11:13:37;;;;;;;4.40;2.10;;;;;;;34.98;39.75;101254.67;105771;1259;65095;-87
2023/08/18 11:16:25;;;;;;;6.90;2.10;;;;;;;35.07;40.89;101255.86;106074;1259;59365;-87
2023/08/18 11:19:13;;;;;;;5.10;2.30;;;;;;;35.15;38.56;101256.40;105740;1260;61248;-88
2023/08/18 11:22:01;;;;;;;4.60;2.50;;;;;;;34.92;38.42;101255.17;105840;1259;67015;-88
2023/08/18 11:24:50;;;;;;;3.10;2.20;;;;;;;34.77;39.07;101255.15;106194;1259;61379;-87
2023/08/18 11:27:44;;;;;;;5.30;2.20;;;;;;;34.77;38.63;101254.01;105993;1259;62683;-88
2023/08/18 11:30:32;;;;;;;3.40;2.20;;;;;;;34.80;38.73;101250.47;105913;1260;61205;-88
2023/08/18 11:33:22;;;;;;;4.00;2.30;;;;;;;34.73;38.52;101250.25;105926;1261;61167;-86
2023/08/18 11:36:11;;;;;;;4.80;2.30;;;;;;;34.54;39.43;101252.60;105728;1264;66991;-87
2023/08/18 11:39:03;;;;;;;2.90;2.30;;;;;;;34.65;39.71;101245.59;105844;1260;61357;-88
2023/08/18 11:41:52;;;;;;;3.70;2.30;;;;;;;34.90;39.92;101249.94;105842;1260;65117;-87
2023/08/18 11:44:41;;;;;;;2.80;2.50;;;;;;;35.17;40.82;101249.86;106017;1258;61167;-87
2023/08/18 11:47:32;;;;;;;3.80;2.40;;;;;;;35.42;39.31;101245.55;106157;1260;61373;-87
2023/08/18 11:50:20;;;;;;;4.20;2.20;;;;;;;35.58;38.99;101244.79;105936;1258;64474;-88
2023/08/18 11:53:09;;;;;;;4.40;2.30;;;;;;;35.77;38.62;101247.08;105957;1259;61330;-88
2023/08/18 11:55:57;;;;;;;4.50;2.20;;;;;;;35.90;36.78;101247.71;105910;1259;64447;-85
2023/08/18 11:58:45;;;;;;;4.10;2.00;;;;;;;36.11;35.56;101246.00;105943;1264;61189;-87
2023/08/18 12:01:33;;;;;;;5.20;2.60;;;;;;;36.42;35.23;101243.34;105816;1260;61121;-87
2023/08/18 12:04:26;;;;;;;9.20;2.80;;;;;;;36.51;34.89;101244.44;105968;1263;67089;-88
2023/08/18 12:07:14;;;;;;;3.10;2.20;;;;;;;36.18;34.17;101244.64;105985;1259;61130;-87
2023/08/18 12:10:03;;;;;;;6.20;2.00;;;;;;;35.70;35.47;101247.66;106010;1260;64338;-86
2023/08/18 12:12:56;;;;;;;4.20;2.40;;;;;;;35.73;36.65;101242.91;106022;1260;59243;-87
2023/08/18 12:15:45;;;;;;;3.40;2.30;;;;;;;35.90;35.77;101245.03;106034;1259;61249;-86
2023/08/18 12:18:34;;;;;;;5.80;2.50;;;;;;;36.12;35.88;101244.77;105933;1259;65700;-87
2023/08/18 12:21:22;;;;;;;2.50;2.20;;;;;;;36.40;34.90;101245.91;105957;1260;61379;-87
2023/08/18 12:24:10;;;;;;;3.50;2.30;;;;;;;36.53;35.68;101245.55;105942;1260;64827;-85
2023/08/18 12:26:59;;;;;;;2.50;2.30;;;;;;;36.87;35.34;101242.86;106128;1258;61436;-87
2023/08/18 12:29:48;;;;;;;2.70;2.40;;;;;;;37.09;34.28;101240.15;106079;1259;61271;-86
2023/08/18 12:32:36;;;;;;;4.40;2.70;;;;;;;36.99;34.40;101238.41;106034;1263;65256;-88
2023/08/18 12:35:25;;;;;;;2.50;2.10;;;;;;;36.59;35.50;101241.59;105838;1259;61377;-88
2023/08/18 12:38:13;;;;;;;3.30;2.30;;;;;;;36.19;35.54;101245.54;105816;1264;64090;-86
2023/08/18 12:41:02;;;;;;;5.90;2.40;;;;;;;35.78;36.15;101239.90;106008;1264;61263;-87
2023/08/18 12:43:50;;;;;;;7.00;2.30;;;;;;;35.53;37.20;101240.64;105873;1264;61255;-87
2023/08/18 12:46:38;;;;;;;5.40;2.70;;;;;;;35.36;37.06;101234.69;105817;1262;66848;-87
2023/08/18 12:49:27;;;;;;;2.40;2.00;;;;;;;35.29;37.29;101232.70;105808;1259;61368;-88
2023/08/18 12:52:15;;;;;;;4.10;2.40;;;;;;;35.27;36.95;101230.64;105848;1259;62653;-89